M I D A S
Marine Information and Data Acquisition System
Tripno 455 of the Zeeleeuw from 2003-03-25 09:09:30 to 2003-03-25 17:48:48
Back to CruiseResearch ActivitiesStationsMapUnderway DataData graphs

EquipmentUnitsComment
TimeDGPSUTC
LatitudeDGPSDM.mWGS84
LongitudeDGPSDM.mWGS84
TemperatureSBE03/SBE38deg celciusITS90
ConductivitySBE21S/mITS90
SalinitySBE21 Practical Salinity Units
ChlorophylAChelsea fluorimeterg/lCalibrated in Aceton
Missing or incorrect values are displayed as -999
Sea surface data collected by the RV Zeeleeuw from 2003-03-25 09:09:30 to 2003-03-25 17:48:48
Time Latitude Longitude Temperature Conductivity Salinity ChlorophylA
2003-03-25 09:10:35 51°13.6 2°56.102 -999 3.325859 21.95184 -0.848668
2003-03-25 09:11:35 51°13.611 2°56.07 -999 3.325859 21.95218 -0.848668
2003-03-25 09:12:35 51°13.634 2°55.985 -999 3.325859 21.95218 -0.848668
2003-03-25 09:13:35 51°13.66 2°55.879 -999 3.325859 21.95184 -0.814958
2003-03-25 09:14:33 51°13.674 2°55.783 -999 3.325965 21.952607 -0.848668
2003-03-25 09:15:33 51°13.673 2°55.746 -999 3.325859 21.9515 -0.814958
2003-03-25 09:16:33 51°13.702 2°55.768 -999 3.325965 21.952607 -0.848668
2003-03-25 09:17:33 51°13.755 2°55.706 -999 3.325965 21.951248 -0.848668
2003-03-25 09:18:33 51°13.853 2°55.623 -999 3.326175 21.954142 -0.882377
2003-03-25 09:19:32 51°13.97 2°55.531 -999 3.32607 21.953375 -0.848668
2003-03-25 09:20:33 51°14.094 2°55.435 -999 3.326281 21.95423 -0.848668
2003-03-25 09:21:33 51°14.22 2°55.335 -999 3.326281 21.95389 -0.814958
2003-03-25 09:22:33 51°14.326 2°55.148 -999 3.326281 21.952871 -0.882377
2003-03-25 09:23:33 51°14.452 2°54.986 -999 3.326386 21.953978 -0.848668
2003-03-25 09:24:33 51°14.59 2°54.85 -999 3.326386 21.953638 -0.848668
2003-03-25 09:25:33 51°14.749 2°54.704 -999 3.326386 21.952959 -0.848668
2003-03-25 09:26:33 51°14.927 2°54.542 29.085392 3.326597 21.954154 -0.848668
2003-03-25 09:27:33 51°15.106 2°54.382 27.9191 3.326491 21.953387 -0.848668
2003-03-25 09:28:33 51°15.287 2°54.223 28.659392 3.326491 21.953387 -0.848668
2003-03-25 09:29:33 51°15.47 2°54.057 28.645706 3.326702 21.954242 -0.882377
2003-03-25 09:30:33 51°15.671 2°53.882 27.700876 3.326807 21.954669 -0.848668
2003-03-25 09:31:33 51°15.875 2°53.7 28.414029 3.326807 21.955009 -0.848668
2003-03-25 09:32:33 51°16.08 2°53.516 28.093055 3.326807 21.954669 -0.814958
2003-03-25 09:33:33 51°16.284 2°53.33 28.890278 3.326912 21.955097 -0.882377
2003-03-25 09:34:33 51°16.486 2°53.145 29.242553 3.326912 21.954757 -0.848668
2003-03-25 09:35:32 51°16.687 2°52.96 28.538934 3.326912 21.954757 -0.848668
2003-03-25 09:36:33 51°16.89 2°52.773 28.264367 3.327018 21.955185 -0.848668
2003-03-25 09:37:33 51°17.093 2°52.589 29.797783 3.327123 21.955273 -0.882377
2003-03-25 09:38:33 51°17.3 2°52.416 29.877487 3.327123 21.955273 -0.848668
2003-03-25 09:39:34 51°17.525 2°52.315 29.683527 3.327334 21.956128 -0.848668
2003-03-25 09:40:33 51°17.749 2°52.294 29.308994 3.327439 21.956216 -0.814958
2003-03-25 09:41:32 51°17.972 2°52.308 31.409895 3.327439 21.955876 -0.848668
2003-03-25 09:42:33 51°18.161 2°52.498 31.944711 3.327439 21.956216 -0.882377
2003-03-25 09:43:33 51°18.278 2°52.796 30.044155 3.327544 21.955964 -0.882377
2003-03-25 09:44:32 51°18.378 2°53.102 29.665312 3.32765 21.956391 -0.848668
2003-03-25 09:45:33 51°18.492 2°53.411 29.638549 3.32765 21.956052 -0.848668
2003-03-25 09:46:33 51°18.6 2°53.717 30.369549 3.32786 21.956907 -0.882377
2003-03-25 09:47:33 51°18.71 2°54.024 28.889705 3.32786 21.956907 -0.882377
2003-03-25 09:48:33 51°18.832 2°54.316 30.264486 3.32786 21.956567 -0.848668
2003-03-25 09:49:32 51°18.963 2°54.592 29.315261 3.327965 21.956655 -0.882377
2003-03-25 09:50:34 51°19.107 2°54.875 27.944996 3.327965 21.956995 -0.848668
2003-03-25 09:51:34 51°19.294 2°55.066 32.198799 3.328281 21.958277 -0.882377
2003-03-25 09:52:34 51°19.489 2°55.243 30.428798 3.328281 21.958277 -0.882377
2003-03-25 09:53:34 51°19.701 2°55.36 31.024267 3.328387 21.958365 -0.814958
2003-03-25 09:54:34 51°19.927 2°55.329 27.227468 3.328387 21.957006 -0.848668
2003-03-25 09:55:34 51°20.158 2°55.302 28.19067 3.328597 21.958201 -0.848668
2003-03-25 09:56:34 51°20.387 2°55.275 29.543934 3.328597 21.957861 -0.848668
2003-03-25 09:57:34 51°20.618 2°55.25 27.362122 3.328808 21.959395 -0.848668
2003-03-25 09:58:33 51°20.845 2°55.225 29.206334 3.328808 21.958377 -0.848668
2003-03-25 09:59:33 51°21.078 2°55.203 26.776997 3.328913 21.958464 -0.882377
2003-03-25 10:00:34 51°21.313 2°55.181 29.065353 3.329124 21.959659 -0.882377
2003-03-25 10:01:34 51°21.546 2°55.156 28.537746 3.329124 21.95898 -0.848668
2003-03-25 10:02:34 51°21.779 2°55.135 28.668694 3.329229 21.959067 -0.848668
2003-03-25 10:03:34 51°22.014 2°55.116 28.085744 3.329334 21.959495 -0.848668
2003-03-25 10:04:35 51°22.25 2°55.152 29.063281 3.329545 21.960689 -0.848668
2003-03-25 10:05:34 51°22.472 2°55.238 32.009764 3.329545 21.95967 -0.848668
2003-03-25 10:06:34 51°22.7 2°55.321 31.062378 3.329756 21.960865 -0.848668
2003-03-25 10:07:34 51°22.925 2°55.399 29.776836 3.329861 21.960953 -0.848668
2003-03-25 10:08:36 51°23.158 2°55.478 29.496031 3.329966 21.96138 -0.814958
2003-03-25 10:09:35 51°23.379 2°55.55 30.563831 3.329966 21.960701 -0.848668
2003-03-25 10:10:35 51°23.603 2°55.626 30.175508 3.330177 21.961555 -0.882377
2003-03-25 10:11:35 51°23.828 2°55.692 29.001021 3.330177 21.960876 -0.848668
2003-03-25 10:12:35 51°24.059 2°55.722 31.528993 3.330177 21.960537 -0.848668
2003-03-25 10:13:35 51°24.291 2°55.695 29.109175 3.330387 21.960373 -0.848668
2003-03-25 10:14:35 51°24.528 2°55.663 31.592153 3.330598 21.962246 -0.848668
2003-03-25 10:15:35 51°24.745 2°55.525 30.227064 3.330598 21.961567 -0.848668
2003-03-25 10:16:35 51°24.951 2°55.342 28.231285 3.330809 21.962082 -0.848668
2003-03-25 10:17:35 51°25.159 2°55.161 28.869578 3.330914 21.96251 -0.814958
2003-03-25 10:18:35 51°25.368 2°54.982 28.985645 3.331019 21.962597 -0.848668
2003-03-25 10:19:35 51°25.576 2°54.805 30.48169 3.331125 21.962006 -0.848668
2003-03-25 10:20:35 51°25.787 2°54.633 28.859333 3.331335 21.9632 -0.882377
2003-03-25 10:21:35 51°25.999 2°54.462 28.124679 3.331441 21.962949 -0.848668
2003-03-25 10:22:41 51°26.241 2°54.281 30.150474 3.331546 21.963715 -0.848668
2003-03-25 10:23:45 51°26.468 2°54.099 30.206868 3.331651 21.963464 -0.848668
2003-03-25 10:24:45 51°26.676 2°53.926 28.741025 3.331756 21.963552 -0.848668
2003-03-25 10:25:45 51°26.886 2°53.755 28.012487 3.331862 21.963979 -0.882377
2003-03-25 10:26:45 51°27.103 2°53.586 29.586768 3.332072 21.964833 -0.848668
2003-03-25 10:27:45 51°27.317 2°53.412 29.772801 3.332072 21.963815 -0.848668
2003-03-25 10:28:45 51°27.527 2°53.238 25.858783 3.332283 21.965009 -0.848668
2003-03-25 10:29:45 51°27.727 2°53.036 30.809794 3.332283 21.964669 -0.814958
2003-03-25 10:30:45 51°27.845 2°52.707 30.262165 3.332599 21.966629 -0.848668
2003-03-25 10:31:45 51°27.854 2°52.323 32.815332 3.332599 21.965611 -0.848668
2003-03-25 10:32:45 51°27.818 2°51.935 31.355217 3.332809 21.965787 -0.848668
2003-03-25 10:33:45 51°27.794 2°51.552 30.823199 3.332915 21.966553 -0.848668
2003-03-25 10:34:45 51°27.773 2°51.171 27.882054 3.33302 21.966302 -0.848668
2003-03-25 10:35:45 51°27.748 2°50.79 30.958546 3.333125 21.967068 -0.848668
2003-03-25 10:36:45 51°27.675 2°50.429 32.896917 3.333231 21.966477 -0.848668
2003-03-25 10:37:46 51°27.556 2°50.097 30.249857 3.333336 21.966226 -0.814958
2003-03-25 10:38:45 51°27.41 2°49.804 32.414864 3.333652 21.968186 -0.848668
2003-03-25 10:39:46 51°27.199 2°49.629 30.372042 3.333757 21.967595 -0.848668
2003-03-25 10:40:45 51°26.976 2°49.666 30.007682 3.333863 21.968022 -0.848668
2003-03-25 10:41:45 51°26.781 2°49.851 30.782524 3.334073 21.968198 -0.882377
2003-03-25 10:42:46 51°26.573 2°50.031 30.045671 3.334178 21.969642 -0.848668
2003-03-25 10:43:45 51°26.366 2°50.185 32.424984 3.334178 21.967946 -0.848668
2003-03-25 10:44:45 51°26.134 2°50.231 31.317251 3.334284 21.967695 -0.848668
2003-03-25 10:45:45 51°25.912 2°50.098 33.177625 3.334389 21.968122 -0.848668
2003-03-25 10:46:45 51°25.765 2°49.794 31.559663 3.334494 21.96787 -0.814958
2003-03-25 10:47:45 51°25.65 2°49.446 30.285862 3.33481 21.969151 -0.848668
2003-03-25 10:48:45 51°25.532 2°49.103 30.091712 3.33481 21.968812 -0.882377
2003-03-25 10:49:45 51°25.413 2°48.765 30.303366 3.335021 21.969327 -0.882377
2003-03-25 10:50:45 51°25.291 2°48.429 31.320372 3.335126 21.969415 -0.848668
2003-03-25 10:51:46 51°25.165 2°48.085 30.346265 3.335337 21.970268 -0.848668
2003-03-25 10:52:45 51°25.043 2°47.755 28.908573 3.335442 21.970695 -0.848668
2003-03-25 10:53:46 51°24.916 2°47.413 28.047875 3.335547 21.970105 -0.848668
2003-03-25 10:54:45 51°24.81 2°47.122 28.007704 3.335653 21.97121 -0.848668
2003-03-25 10:55:45 51°24.764 2°46.873 29.363065 3.335653 21.969515 -0.848668
2003-03-25 10:56:45 51°24.84 2°46.598 28.724412 3.335863 21.970707 -0.848668
2003-03-25 10:57:45 51°25.008 2°46.353 28.535048 3.336074 21.970544 -0.848668
2003-03-25 10:58:45 51°25.201 2°46.149 30.449987 3.336179 21.969276 -0.848668
2003-03-25 10:59:45 51°25.418 2°46.044 30.318055 3.336285 21.972076 -0.848668
2003-03-25 11:00:45 51°25.612 2°45.835 30.932583 3.3366 21.972678 -0.814958
2003-03-25 11:01:45 51°25.794 2°45.658 26.820673 3.3366 21.972678 -0.882377
2003-03-25 11:02:45 51°25.912 2°45.538 27.345966 3.336706 21.971071 -0.814958
2003-03-25 11:03:45 51°26.046 2°45.415 28.961037 3.336811 21.971159 -0.848668
2003-03-25 11:04:45 51°26.182 2°45.277 30.288252 3.337022 21.972012 -0.882377
2003-03-25 11:05:45 51°26.313 2°45.147 30.224425 3.337232 21.972527 -0.848668
2003-03-25 11:06:45 51°26.45 2°45.017 30.51748 3.337443 21.973719 -0.848668
2003-03-25 11:07:45 51°26.585 2°44.876 29.601774 3.337338 21.971598 -0.848668
2003-03-25 11:08:45 51°26.723 2°44.74 28.320963 3.337864 21.974409 -0.882377
2003-03-25 11:09:45 51°26.863 2°44.61 30.457879 3.337864 21.973732 -0.848668
2003-03-25 11:10:45 51°26.976 2°44.433 30.412551 3.338075 21.974585 -0.848668
2003-03-25 11:11:45 51°27.008 2°44.176 31.525915 3.338285 21.97476 -0.882377
2003-03-25 11:12:45 51°26.977 2°43.91 30.741302 3.338496 21.975275 -0.848668
2003-03-25 11:13:45 51°26.915 2°43.655 27.924686 3.338601 21.975363 -0.848668
2003-03-25 11:14:45 51°26.852 2°43.398 30.964853 3.338707 21.975112 -0.814958
2003-03-25 11:15:45 51°26.791 2°43.139 29.47166 3.338917 21.975626 -0.848668
2003-03-25 11:16:45 51°26.736 2°42.912 29.27904 3.339022 21.975714 -0.882377
2003-03-25 11:17:45 51°26.693 2°42.731 28.763124 3.339233 21.975889 -0.848668
2003-03-25 11:18:45 51°26.653 2°42.563 29.352887 3.339444 21.976404 -0.848668
2003-03-25 11:19:45 51°26.613 2°42.401 27.054156 3.339549 21.976153 -0.814958
2003-03-25 11:20:45 51°26.573 2°42.238 26.33444 3.339654 21.976241 -0.848668
2003-03-25 11:21:45 51°26.534 2°42.075 28.023536 3.33976 21.97599 -0.814958
2003-03-25 11:22:45 51°26.49 2°41.934 27.955911 3.33997 21.976504 -0.882377
2003-03-25 11:23:45 51°26.443 2°41.863 28.16598 3.340181 21.97668 -0.848668
2003-03-25 11:24:45 51°26.402 2°41.826 26.963599 3.340286 21.976429 -0.848668
2003-03-25 11:25:45 51°26.368 2°41.804 28.913943 3.340391 21.976517 -0.814958
2003-03-25 11:26:45 51°26.338 2°41.78 27.745357 3.340707 21.977796 -0.848668
2003-03-25 11:27:45 51°26.31 2°41.757 29.381317 3.340813 21.977546 -0.848668
2003-03-25 11:28:45 51°26.286 2°41.73 28.376939 3.340918 21.977295 -0.848668
2003-03-25 11:29:45 51°26.209 2°41.715 31.093062 3.341129 21.976455 -0.848668
2003-03-25 11:30:45 51°25.989 2°41.697 29.768377 3.341339 21.977646 -0.848668
2003-03-25 11:31:45 51°25.801 2°41.658 29.804611 3.341655 21.979941 -0.848668
2003-03-25 11:32:45 51°25.671 2°41.646 29.545425 3.34176 21.978675 -0.848668
2003-03-25 11:33:45 51°25.527 2°41.62 29.358297 3.341866 21.978424 -0.848668
2003-03-25 11:34:45 51°25.377 2°41.587 31.143063 3.342076 21.978938 -0.814958
2003-03-25 11:35:45 51°25.224 2°41.555 26.850451 3.342182 21.978349 -0.848668
2003-03-25 11:36:45 51°25.071 2°41.52 28.202055 3.342392 21.978863 -0.848668
2003-03-25 11:37:45 51°24.916 2°41.484 25.216533 3.342708 21.979804 -0.814958
2003-03-25 11:38:45 51°24.762 2°41.448 29.891835 3.342813 21.979553 -0.848668
2003-03-25 11:39:45 51°24.607 2°41.414 29.928469 3.342919 21.979641 -0.848668
2003-03-25 11:40:45 51°24.451 2°41.381 27.817751 3.343235 21.980582 -0.814958
2003-03-25 11:41:45 51°24.296 2°41.345 28.703199 3.34334 21.980331 -0.814958
2003-03-25 11:42:45 51°24.139 2°41.305 27.394898 3.343551 21.980507 -0.848668
2003-03-25 11:43:45 51°23.98 2°41.264 27.41853 3.343761 21.980683 -0.848668
2003-03-25 11:44:45 51°23.822 2°41.222 28.474149 3.343972 21.981197 -0.848668
2003-03-25 11:45:45 51°23.666 2°41.179 28.310859 3.344182 21.981373 -0.848668
2003-03-25 11:46:45 51°23.51 2°41.121 28.253064 3.344393 21.981887 -0.848668
2003-03-25 11:47:45 51°23.374 2°40.987 27.696255 3.344498 21.981636 -0.848668
2003-03-25 11:48:45 51°23.289 2°40.775 27.274905 3.344814 21.9819 -0.848668
2003-03-25 11:49:46 51°23.248 2°40.528 29.541129 3.34492 21.98165 -0.848668
2003-03-25 11:50:45 51°23.205 2°40.29 28.729579 3.34513 21.981826 -0.848668
2003-03-25 11:51:45 51°23.138 2°40.056 29.148831 3.345341 21.981663 -0.848668
2003-03-25 11:52:45 51°23.07 2°39.822 28.132673 3.345551 21.982515 -0.814958
2003-03-25 11:53:45 51°23 2°39.591 29.136233 3.345762 21.982691 -0.848668
2003-03-25 11:54:45 51°22.929 2°39.358 30.018407 3.345973 21.983205 -0.814958
2003-03-25 11:55:45 51°22.856 2°39.125 30.889839 3.346183 21.983381 -0.882377
2003-03-25 11:56:45 51°22.784 2°38.891 31.683568 3.346394 21.983557 -0.848668
2003-03-25 11:57:45 51°22.714 2°38.658 29.40081 3.346604 21.984071 -0.848668
2003-03-25 11:58:45 51°22.644 2°38.425 28.350146 3.346815 21.983909 -0.814958
2003-03-25 11:59:45 51°22.569 2°38.195 27.345162 3.347131 21.984849 -0.882377
2003-03-25 12:00:45 51°22.477 2°37.983 30.607109 3.347236 21.984599 -0.882377
2003-03-25 12:01:45 51°22.386 2°37.771 30.639831 3.347447 21.984437 -0.882377
2003-03-25 12:02:45 51°22.293 2°37.56 30.341277 3.347657 21.98495 -0.882377
2003-03-25 12:03:45 51°22.174 2°37.382 33.050234 3.347973 21.985552 -0.848668
2003-03-25 12:04:45 51°22.047 2°37.218 29.361392 3.348184 21.986404 -0.848668
2003-03-25 12:05:45 51°21.919 2°37.05 30.729072 3.348395 21.986242 -0.848668
2003-03-25 12:06:45 51°21.791 2°36.884 29.670558 3.348711 21.987181 -0.882377
2003-03-25 12:07:45 51°21.665 2°36.711 27.686831 3.348711 21.98583 -0.848668
2003-03-25 12:08:45 51°21.538 2°36.545 30.247817 3.349132 21.987533 -0.848668
2003-03-25 12:09:45 51°21.393 2°36.458 29.949516 3.349342 21.987709 -0.848668
2003-03-25 12:10:45 51°21.243 2°36.484 30.422272 3.349553 21.987547 -0.814958
2003-03-25 12:11:45 51°21.062 2°36.578 29.85087 3.349764 21.987723 -0.848668
2003-03-25 12:12:45 51°20.859 2°36.682 30.79094 3.35008 21.988663 -0.848668
2003-03-25 12:13:45 51°20.641 2°36.794 30.517585 3.350185 21.987738 -0.848668
2003-03-25 12:14:45 51°20.422 2°36.911 30.405813 3.350501 21.988677 -0.882377
2003-03-25 12:15:45 51°20.202 2°37.032 29.755139 3.350711 21.988178 -0.814958
2003-03-25 12:16:45 51°19.986 2°37.154 29.147689 3.350922 21.988691 -0.848668
2003-03-25 12:17:45 51°19.772 2°37.287 29.100927 3.351238 21.989631 -0.882377
2003-03-25 12:18:45 51°19.555 2°37.422 28.35992 3.351449 21.989469 -0.848668
2003-03-25 12:19:45 51°19.338 2°37.559 27.323773 3.351659 21.989645 -0.848668
2003-03-25 12:20:44 51°19.121 2°37.688 29.550856 3.35187 21.989484 -0.848668
2003-03-25 12:21:44 51°18.898 2°37.816 29.04463 3.351975 21.988897 -0.781249
2003-03-25 12:22:45 51°18.67 2°37.942 29.299486 3.352291 21.989498 -0.882377
2003-03-25 12:23:44 51°18.474 2°38.011 29.717606 3.352502 21.989675 -0.882377
2003-03-25 12:24:45 51°18.28 2°37.959 28.609269 3.352923 21.990702 -0.882377
2003-03-25 12:25:44 51°18.102 2°37.842 31.341211 3.353028 21.990115 -0.848668
2003-03-25 12:26:44 51°17.926 2°37.718 29.947362 3.353344 21.991054 -0.882377
2003-03-25 12:27:44 51°17.752 2°37.589 30.758597 3.35366 21.991993 -0.848668
2003-03-25 12:28:45 51°17.578 2°37.452 30.445287 3.353871 21.991831 -0.814958
2003-03-25 12:29:44 51°17.412 2°37.312 30.225375 3.354292 21.993195 -0.848668
2003-03-25 12:30:45 51°17.238 2°37.165 30.350234 3.354292 21.991847 -0.848668
2003-03-25 12:31:45 51°17.071 2°37.013 29.111174 3.354818 21.993636 -0.848668
2003-03-25 12:32:45 51°16.903 2°36.865 31.478967 3.355029 21.994149 -0.848668
2003-03-25 12:33:45 51°16.734 2°36.717 29.528242 3.35524 21.993988 -0.814958
2003-03-25 12:34:44 51°16.569 2°36.567 30.316509 3.35545 21.994164 -0.848668
2003-03-25 12:35:44 51°16.402 2°36.414 28.053307 3.355661 21.994003 -0.848668
2003-03-25 12:36:45 51°16.232 2°36.257 29.055493 3.355977 21.994605 -0.848668
2003-03-25 12:37:44 51°16.078 2°36.091 32.147836 3.356293 21.994869 -0.848668
2003-03-25 12:38:44 51°15.954 2°35.855 29.627522 3.356398 21.995294 -0.848668
2003-03-25 12:39:44 51°15.833 2°35.615 29.346339 3.356714 21.995895 -0.848668
2003-03-25 12:40:44 51°15.718 2°35.365 28.575332 3.35703 21.996497 -0.848668
2003-03-25 12:41:43 51°15.572 2°35.191 27.964648 3.35724 21.995662 -0.848668
2003-03-25 12:42:45 51°15.391 2°35.079 29.852425 3.357556 21.9966 -0.848668
2003-03-25 12:43:45 51°15.218 2°34.948 29.019254 3.357872 21.997201 -0.848668
2003-03-25 12:44:44 51°15.048 2°34.822 29.92091 3.358083 21.997378 -0.848668
2003-03-25 12:45:44 51°14.875 2°34.692 29.825976 3.358399 21.997642 -0.882377
2003-03-25 12:46:44 51°14.697 2°34.571 29.877841 3.358609 21.997481 -0.848668
2003-03-25 12:47:44 51°14.525 2°34.443 30.038054 3.35882 21.997321 -0.848668
2003-03-25 12:48:44 51°14.354 2°34.32 29.108389 3.359136 21.997922 -0.848668
2003-03-25 12:49:44 51°14.183 2°34.197 30.419465 3.359452 21.998523 -0.848668
2003-03-25 12:50:45 51°14.004 2°34.099 28.685572 3.359663 21.9987 -0.848668
2003-03-25 12:51:44 51°13.828 2°34.033 30.352236 3.359873 21.998203 -0.848668
2003-03-25 12:52:44 51°13.65 2°33.994 30.787308 3.360189 21.998804 -0.848668
2003-03-25 12:53:44 51°13.469 2°33.957 30.309832 3.3604 21.998643 -0.848668
2003-03-25 12:54:44 51°13.286 2°33.972 28.349173 3.360716 21.999245 -0.848668
2003-03-25 12:55:44 51°13.115 2°34.028 29.282318 3.361032 22.000856 -0.882377
2003-03-25 12:56:44 51°13.025 2°34.217 30.908216 3.361242 21.999686 -0.848668
2003-03-25 12:57:44 51°13.062 2°34.443 29.531118 3.361663 22.001048 -0.848668
2003-03-25 12:58:44 51°13.128 2°34.666 29.118029 3.361874 22.001224 -0.848668
2003-03-25 12:59:44 51°13.192 2°34.886 29.580027 3.361979 22.000303 -0.848668
2003-03-25 13:00:44 51°13.253 2°35.105 27.645264 3.362295 22.000568 -0.848668
2003-03-25 13:01:44 51°13.312 2°35.322 28.372252 3.362611 22.000833 -0.848668
2003-03-25 13:02:45 51°13.372 2°35.549 28.140992 3.363032 22.001858 -0.848668
2003-03-25 13:03:44 51°13.426 2°35.768 28.00111 3.363243 22.002035 -0.848668
2003-03-25 13:04:44 51°13.482 2°35.995 28.920887 3.363559 22.001963 -0.848668
2003-03-25 13:05:44 51°13.535 2°36.231 29.745651 3.363875 22.0029 -0.882377
2003-03-25 13:06:44 51°13.588 2°36.452 30.443919 3.364191 22.002829 -0.848668
2003-03-25 13:07:44 51°13.652 2°36.675 29.147083 3.364507 22.00343 -0.814958
2003-03-25 13:08:44 51°13.718 2°36.893 29.299557 3.364823 22.003695 -0.882377
2003-03-25 13:09:44 51°13.78 2°37.114 27.89305 3.364928 22.002775 -0.848668
2003-03-25 13:10:45 51°13.841 2°37.339 29.930411 3.365454 22.004224 -0.882377
2003-03-25 13:11:44 51°13.908 2°37.552 28.287906 3.365665 22.004737 -0.882377
2003-03-25 13:12:44 51°13.973 2°37.771 30.109331 3.365876 22.004241 -0.848668
2003-03-25 13:13:44 51°14.024 2°38.001 28.096421 3.366297 22.005267 -0.848668
2003-03-25 13:14:44 51°14.059 2°38.238 28.748273 3.366508 22.004771 -0.814958
2003-03-25 13:15:44 51°14.088 2°38.483 28.317788 3.366823 22.005372 -0.848668
2003-03-25 13:16:44 51°14.105 2°38.728 28.12088 3.367034 22.004877 -0.848668
2003-03-25 13:17:44 51°14.127 2°38.977 29.208223 3.36735 22.005142 -0.814958
2003-03-25 13:18:44 51°14.151 2°39.23 28.479658 3.367666 22.005743 -0.848668
2003-03-25 13:19:44 51°14.171 2°39.483 28.636365 3.367982 22.006008 -0.882377
2003-03-25 13:20:45 51°14.189 2°39.738 28.593309 3.368298 22.005937 -0.848668
2003-03-25 13:21:44 51°14.213 2°39.982 28.568608 3.368719 22.007298 -0.848668
2003-03-25 13:22:44 51°14.238 2°40.232 29.595921 3.36893 22.007139 -0.814958
2003-03-25 13:23:44 51°14.265 2°40.484 27.628259 3.369351 22.007828 -0.848668
2003-03-25 13:24:45 51°14.286 2°40.74 28.2596 3.369561 22.007334 -0.848668
2003-03-25 13:25:44 51°14.308 2°40.987 29.990322 3.369983 22.008359 -0.848668
2003-03-25 13:26:44 51°14.332 2°41.234 30.391562 3.370299 22.008624 -0.848668
2003-03-25 13:27:45 51°14.354 2°41.479 32.111908 3.370509 22.00813 -0.848668
2003-03-25 13:28:44 51°14.374 2°41.714 29.784869 3.370825 22.008395 -0.848668
2003-03-25 13:29:44 51°14.399 2°41.953 30.010928 3.371141 22.00866 -0.848668
2003-03-25 13:30:45 51°14.423 2°42.197 30.019607 3.371562 22.009349 -0.848668
2003-03-25 13:31:45 51°14.445 2°42.434 28.33864 3.371773 22.009191 -0.848668
2003-03-25 13:32:45 51°14.47 2°42.672 28.36486 3.372194 22.00988 -0.848668
2003-03-25 13:33:44 51°14.491 2°42.907 28.69645 3.37251 22.010481 -0.848668
2003-03-25 13:34:44 51°14.516 2°43.148 30.56961 3.372826 22.010076 -0.848668
2003-03-25 13:35:45 51°14.54 2°43.392 28.214449 3.373142 22.010676 -0.814958
2003-03-25 13:36:45 51°14.559 2°43.633 29.283671 3.373563 22.011366 -0.882377
2003-03-25 13:37:44 51°14.583 2°43.869 29.696388 3.373774 22.010872 -0.814958
2003-03-25 13:38:44 51°14.609 2°44.111 29.295141 3.37409 22.011138 -0.882377
2003-03-25 13:39:44 51°14.631 2°44.354 27.168863 3.374511 22.011827 -0.848668
2003-03-25 13:40:44 51°14.657 2°44.597 28.836152 3.374827 22.012092 -0.848668
2003-03-25 13:41:45 51°14.684 2°44.844 27.157429 3.375248 22.013117 -0.848668
2003-03-25 13:42:45 51°14.708 2°45.09 28.611785 3.375564 22.012712 -0.848668
2003-03-25 13:43:44 51°14.733 2°45.331 27.978713 3.37588 22.012978 -0.848668
2003-03-25 13:44:45 51°14.76 2°45.585 27.67959 3.376196 22.013244 -0.848668
2003-03-25 13:45:44 51°14.787 2°45.833 28.307828 3.376512 22.013174 -0.848668
2003-03-25 13:46:44 51°14.815 2°46.087 29.477416 3.376828 22.013775 -0.882377
2003-03-25 13:47:44 51°14.845 2°46.342 29.308282 3.377249 22.014129 -0.814958
2003-03-25 13:48:44 51°14.872 2°46.599 30.174487 3.377565 22.014395 -0.848668
2003-03-25 13:49:44 51°14.895 2°46.834 29.946162 3.377986 22.015754 -0.848668
2003-03-25 13:50:45 51°14.91 2°46.971 28.528104 3.378197 22.014927 -0.848668
2003-03-25 13:51:45 51°14.942 2°47.084 28.087698 3.378618 22.015616 -0.848668
2003-03-25 13:52:45 51°15.067 2°47.125 29.903177 3.378934 22.016216 -0.848668
2003-03-25 13:53:45 51°15.142 2°46.892 29.825304 3.37925 22.016482 -0.848668
2003-03-25 13:54:45 51°15.079 2°46.563 29.32288 3.379671 22.017171 -0.848668
2003-03-25 13:55:45 51°15.006 2°46.2 27.077346 3.379882 22.016345 -0.848668
2003-03-25 13:56:45 51°14.934 2°45.824 27.157503 3.380303 22.017034 -0.848668
2003-03-25 13:57:45 51°14.864 2°45.443 29.825092 3.380514 22.016877 -0.848668
2003-03-25 13:58:45 51°14.795 2°45.064 28.930157 3.38083 22.016474 -0.814958
2003-03-25 13:59:45 51°14.731 2°44.682 27.211393 3.381146 22.017075 -0.814958
2003-03-25 14:00:45 51°14.668 2°44.301 30.531287 3.381462 22.017006 -0.848668
2003-03-25 14:01:45 51°14.604 2°43.918 30.307407 3.381883 22.01803 -0.848668
2003-03-25 14:02:44 51°14.508 2°43.579 30.262728 3.382093 22.019545 -0.848668
2003-03-25 14:03:45 51°14.324 2°43.591 29.359649 3.382515 22.019565 -0.848668
2003-03-25 14:04:45 51°14.276 2°43.779 31.002436 3.382936 22.019586 -0.882377
2003-03-25 14:05:44 51°14.304 2°44.007 31.057576 3.383147 22.019429 -0.848668
2003-03-25 14:06:45 51°14.341 2°44.246 30.355467 3.383568 22.020786 -0.848668
2003-03-25 14:07:44 51°14.39 2°44.476 31.30147 3.383778 22.020295 -0.848668
2003-03-25 14:08:44 51°14.442 2°44.712 31.712072 3.383989 22.01947 -0.848668
2003-03-25 14:09:45 51°14.493 2°44.95 31.138613 3.384305 22.019069 -0.848668
2003-03-25 14:10:45 51°14.546 2°45.193 31.656503 3.384621 22.019335 -0.848668
2003-03-25 14:11:45 51°14.593 2°45.434 30.872121 3.385042 22.020358 -0.848668
2003-03-25 14:12:45 51°14.64 2°45.675 30.458791 3.385358 22.020291 -0.848668
2003-03-25 14:13:44 51°14.687 2°45.913 29.225194 3.385674 22.020223 -0.848668
2003-03-25 14:14:44 51°14.738 2°46.17 30.100135 3.38599 22.02049 -0.848668
2003-03-25 14:15:44 51°14.788 2°46.42 30.337799 3.386306 22.02109 -0.848668
2003-03-25 14:16:45 51°14.84 2°46.684 30.68422 3.386727 22.021446 -0.882377
2003-03-25 14:17:45 51°14.889 2°46.941 29.79888 3.386938 22.02129 -0.848668
2003-03-25 14:18:44 51°14.935 2°47.191 28.141209 3.387254 22.021556 -0.848668
2003-03-25 14:19:45 51°14.977 2°47.454 28.999412 3.387675 22.021912 -0.848668
2003-03-25 14:20:45 51°15.016 2°47.717 28.709266 3.387991 22.022179 -0.882377
2003-03-25 14:21:45 51°15.056 2°47.982 30.221013 3.388412 22.022868 -0.848668
2003-03-25 14:22:45 51°15.09 2°48.246 30.574408 3.388623 22.022378 -0.848668
2003-03-25 14:23:45 51°15.124 2°48.508 29.742607 3.389044 22.023068 -0.848668
2003-03-25 14:24:45 51°15.157 2°48.765 31.356672 3.389255 22.022245 -0.882377
2003-03-25 14:25:45 51°15.187 2°49.029 29.717854 3.389781 22.024024 -0.882377
2003-03-25 14:26:45 51°15.217 2°49.29 30.314014 3.389992 22.023201 -0.882377
2003-03-25 14:27:45 51°15.244 2°49.548 29.934897 3.390308 22.023135 -0.848668
2003-03-25 14:28:45 51°15.273 2°49.81 28.857721 3.390729 22.024491 -0.848668
2003-03-25 14:29:45 51°15.303 2°50.075 29.594964 3.39094 22.023336 -0.848668
2003-03-25 14:30:45 51°15.333 2°50.335 30.785213 3.391361 22.024025 -0.848668
2003-03-25 14:31:45 51°15.366 2°50.597 29.203517 3.391782 22.025047 -0.848668
2003-03-25 14:32:45 51°15.397 2°50.856 31.273125 3.392098 22.024315 -0.882377
2003-03-25 14:33:45 51°15.404 2°51.12 29.819999 3.392414 22.024915 -0.848668
2003-03-25 14:34:45 51°15.407 2°51.385 29.765581 3.39273 22.025182 -0.882377
2003-03-25 14:35:44 51°15.393 2°51.648 29.682004 3.393046 22.025117 -0.848668
2003-03-25 14:36:45 51°15.336 2°51.91 30.100734 3.393467 22.025473 -0.882377
2003-03-25 14:37:45 51°15.273 2°52.165 30.288393 3.393783 22.025407 -0.848668
2003-03-25 14:38:45 51°15.208 2°52.42 30.30442 3.394204 22.025764 -0.848668
2003-03-25 14:39:45 51°15.147 2°52.664 30.747208 3.39452 22.026697 -0.848668
2003-03-25 14:40:45 51°15.101 2°52.848 31.017165 3.394836 22.026631 -0.882377
2003-03-25 14:41:44 51°15.063 2°52.995 30.66341 3.395152 22.026566 -0.848668
2003-03-25 14:42:45 51°15.042 2°53.13 31.138717 3.395573 22.028586 -0.848668
2003-03-25 14:43:45 51°15.09 2°53.163 30.7725 3.395784 22.026435 -0.848668
2003-03-25 14:44:46 51°15.125 2°53.07 30.448619 3.396311 22.026216 -0.848668
2003-03-25 14:45:44 51°15.151 2°52.938 31.795831 3.396627 22.028812 -0.882377
2003-03-25 14:46:45 51°15.185 2°52.785 30.122332 3.396942 22.028081 -0.848668
2003-03-25 14:47:45 51°15.213 2°52.633 30.723235 3.397258 22.028016 -0.848668
2003-03-25 14:48:45 51°15.246 2°52.487 29.984287 3.397574 22.027619 -0.882377
2003-03-25 14:49:46 51°15.279 2°52.358 29.965509 3.397996 22.028308 -0.848668
2003-03-25 14:50:45 51°15.307 2°52.236 28.954847 3.398101 22.027068 -0.848668
2003-03-25 14:51:45 51°15.334 2°52.108 30.239552 3.398627 22.028511 -0.882377
2003-03-25 14:52:46 51°15.364 2°51.977 29.048061 3.398943 22.028115 -0.848668
2003-03-25 14:53:44 51°15.394 2°51.837 31.647077 3.399259 22.02805 -0.848668
2003-03-25 14:54:45 51°15.409 2°51.576 29.784196 3.399681 22.02874 -0.848668
2003-03-25 14:55:45 51°15.399 2°51.287 29.78678 3.399997 22.029008 -0.814958
2003-03-25 14:56:46 51°15.377 2°50.992 29.848395 3.400312 22.029276 -0.848668
2003-03-25 14:57:45 51°15.354 2°50.708 31.711589 3.400734 22.029965 -0.848668
2003-03-25 14:58:46 51°15.317 2°50.416 28.659105 3.400944 22.028815 -0.848668
2003-03-25 14:59:45 51°15.279 2°50.138 29.71704 3.401471 22.030258 -0.848668
2003-03-25 15:00:46 51°15.241 2°49.848 27.211137 3.401682 22.029773 -0.848668
2003-03-25 15:01:45 51°15.204 2°49.57 29.029906 3.402103 22.030462 -0.848668
2003-03-25 15:02:45 51°15.174 2°49.35 29.183901 3.402419 22.030399 -0.882377
2003-03-25 15:03:45 51°15.147 2°49.155 28.544366 3.402735 22.030667 -0.848668
2003-03-25 15:04:45 51°15.119 2°48.953 27.75052 3.403051 22.030935 -0.848668
2003-03-25 15:05:45 51°15.092 2°48.752 29.872504 3.403367 22.031203 -0.848668
2003-03-25 15:06:45 51°15.063 2°48.552 30.762649 3.403683 22.03114 -0.848668
2003-03-25 15:07:45 51°15.036 2°48.352 28.649298 3.403998 22.031076 -0.848668
2003-03-25 15:08:45 51°15.011 2°48.15 30.773653 3.404314 22.031345 -0.848668
2003-03-25 15:09:46 51°14.983 2°47.949 32.196777 3.404736 22.032034 -0.848668
2003-03-25 15:10:45 51°14.955 2°47.754 28.015892 3.404946 22.031218 -0.814958
2003-03-25 15:11:45 51°14.93 2°47.556 29.92469 3.405368 22.031908 -0.848668
2003-03-25 15:12:45 51°14.903 2°47.358 26.735802 3.405684 22.031845 -0.882377
2003-03-25 15:13:46 51°14.875 2°47.162 27.798969 3.405999 22.031782 -0.848668
2003-03-25 15:14:45 51°14.852 2°46.965 27.120992 3.406315 22.032051 -0.848668
2003-03-25 15:15:46 51°14.824 2°46.77 28.628712 3.406737 22.03274 -0.814958
2003-03-25 15:16:45 51°14.797 2°46.578 28.568464 3.407053 22.033009 -0.882377
2003-03-25 15:17:45 51°14.774 2°46.4 29.079035 3.407369 22.032615 -0.848668
2003-03-25 15:18:45 51°14.752 2°46.232 28.995265 3.407685 22.033215 -0.882377
2003-03-25 15:19:45 51°14.727 2°46.048 28.757923 3.408 22.033152 -0.848668
2003-03-25 15:20:45 51°14.7 2°45.859 28.916986 3.408422 22.033842 -0.882377
2003-03-25 15:21:45 51°14.675 2°45.665 28.297326 3.408738 22.03378 -0.882377
2003-03-25 15:22:45 51°14.65 2°45.47 28.739662 3.409054 22.034049 -0.814958
2003-03-25 15:23:45 51°14.625 2°45.279 28.572456 3.409475 22.034738 -0.814958
2003-03-25 15:24:45 51°14.6 2°45.081 28.366771 3.409686 22.034255 -0.814958
2003-03-25 15:25:45 51°14.574 2°44.884 28.842781 3.410001 22.034193 -0.848668
2003-03-25 15:26:45 51°14.551 2°44.684 28.080496 3.410317 22.034462 -0.848668
2003-03-25 15:27:45 51°14.528 2°44.486 28.757707 3.410739 22.035483 -0.814958
2003-03-25 15:28:45 51°14.505 2°44.287 28.229081 3.411055 22.035421 -0.848668
2003-03-25 15:29:45 51°14.483 2°44.108 29.240664 3.411371 22.035028 -0.848668
2003-03-25 15:30:46 51°14.463 2°43.94 28.386493 3.411476 22.033795 -0.848668
2003-03-25 15:31:45 51°14.442 2°43.754 28.214702 3.411897 22.034485 -0.882377
2003-03-25 15:32:45 51°14.42 2°43.557 28.128803 3.412318 22.035836 -0.848668
2003-03-25 15:33:45 51°14.396 2°43.356 27.540989 3.412634 22.035775 -0.848668
2003-03-25 15:34:45 51°14.371 2°43.158 29.201591 3.412845 22.034962 -0.814958
2003-03-25 15:35:45 51°14.345 2°42.962 27.996145 3.413161 22.034901 -0.848668
2003-03-25 15:36:45 51°14.319 2°42.766 29.460573 3.413477 22.03484 -0.848668
2003-03-25 15:37:46 51°14.293 2°42.567 29.185114 3.413898 22.035529 -0.882377
2003-03-25 15:38:45 51°14.265 2°42.373 27.620648 3.414319 22.036881 -0.848668
2003-03-25 15:39:45 51°14.18 2°42.245 29.010067 3.414635 22.036489 -0.848668
2003-03-25 15:40:45 51°14.066 2°42.257 28.365726 3.414951 22.036759 -0.848668
2003-03-25 15:41:45 51°13.996 2°42.394 28.248044 3.415267 22.037028 -0.848668
2003-03-25 15:42:45 51°14.015 2°42.567 28.98375 3.415583 22.037298 -0.848668
2003-03-25 15:43:45 51°14.08 2°42.725 27.891054 3.415794 22.037147 -0.848668
2003-03-25 15:44:45 51°14.131 2°42.902 28.728933 3.416215 22.037176 -0.848668
2003-03-25 15:45:45 51°14.181 2°43.086 28.929191 3.416636 22.037866 -0.848668
2003-03-25 15:46:45 51°14.225 2°43.237 29.847794 3.416742 22.036965 -0.848668
2003-03-25 15:47:45 51°14.255 2°43.335 29.091321 3.417058 22.036905 -0.848668
2003-03-25 15:48:45 51°14.274 2°43.409 29.326298 3.417479 22.037595 -0.848668
2003-03-25 15:49:45 51°14.303 2°43.521 28.21911 3.4179 22.037625 -0.848668
2003-03-25 15:50:45 51°14.36 2°43.784 29.948774 3.418321 22.038315 -0.848668
2003-03-25 15:51:45 51°14.434 2°44.13 28.703379 3.418532 22.037505 -0.848668
2003-03-25 15:52:46 51°14.508 2°44.499 27.940971 3.418848 22.037775 -0.848668
2003-03-25 15:53:45 51°14.571 2°44.856 30.455529 3.419059 22.037295 -0.848668
2003-03-25 15:54:45 51°14.633 2°45.22 30.970497 3.41948 22.037985 -0.882377
2003-03-25 15:55:45 51°14.694 2°45.588 31.156583 3.419796 22.038255 -0.848668
2003-03-25 15:56:45 51°14.754 2°45.954 29.150972 3.420217 22.038945 -0.848668
2003-03-25 15:57:45 51°14.811 2°46.323 30.574233 3.420322 22.037716 -0.848668
2003-03-25 15:58:45 51°14.867 2°46.692 29.707228 3.420744 22.038736 -0.848668
2003-03-25 15:59:45 51°14.922 2°47.064 30.031035 3.421165 22.039426 -0.814958
2003-03-25 16:00:46 51°14.979 2°47.442 28.396478 3.421376 22.038947 -0.882377
2003-03-25 16:01:46 51°15.03 2°47.816 28.575728 3.421692 22.039217 -0.882377
2003-03-25 16:02:45 51°15.083 2°48.18 27.987085 3.422008 22.038829 -0.882377
2003-03-25 16:03:45 51°15.134 2°48.552 28.372901 3.422323 22.040088 -0.814958
2003-03-25 16:04:45 51°15.185 2°48.924 29.611493 3.422534 22.039609 -0.848668
2003-03-25 16:05:45 51°15.237 2°49.297 29.578501 3.42285 22.03955 -0.882377
2003-03-25 16:06:45 51°15.287 2°49.671 28.315154 3.423166 22.039821 -0.848668
2003-03-25 16:07:45 51°15.335 2°50.045 30.169488 3.423377 22.038683 -0.848668
2003-03-25 16:08:45 51°15.486 2°50.271 28.066884 3.423903 22.042429 -0.848668
2003-03-25 16:09:44 51°15.615 2°50.063 28.920816 3.424219 22.04204 -0.848668
2003-03-25 16:10:46 51°15.539 2°49.735 28.960106 3.424535 22.041981 -0.882377
2003-03-25 16:11:45 51°15.465 2°49.411 29.142836 3.424746 22.042491 -0.882377
2003-03-25 16:12:45 51°15.386 2°49.079 28.615236 3.425062 22.041445 -0.814958
2003-03-25 16:13:44 51°15.311 2°48.748 28.44577 3.425167 22.040218 -0.848668
2003-03-25 16:14:45 51°15.235 2°48.405 29.782427 3.425483 22.03983 -0.848668
2003-03-25 16:15:45 51°15.162 2°48.069 29.695113 3.425799 22.040759 -0.848668
2003-03-25 16:16:45 51°15.092 2°47.735 28.17538 3.426115 22.040701 -0.848668
2003-03-25 16:17:45 51°15.022 2°47.403 31.571105 3.426326 22.040553 -0.848668
2003-03-25 16:18:45 51°14.953 2°47.068 29.005419 3.426536 22.039746 -0.848668
2003-03-25 16:19:45 51°14.887 2°46.734 27.081382 3.426852 22.040346 -0.814958
2003-03-25 16:20:45 51°14.826 2°46.4 28.133976 3.427063 22.039869 -0.882377
2003-03-25 16:21:44 51°14.769 2°46.07 29.805496 3.427379 22.04014 -0.848668
2003-03-25 16:22:45 51°14.715 2°45.727 29.774571 3.427695 22.040083 -0.882377
2003-03-25 16:23:45 51°14.664 2°45.39 28.960679 3.428116 22.040773 -0.814958
2003-03-25 16:24:45 51°14.615 2°45.051 28.638233 3.428221 22.040535 -0.814958
2003-03-25 16:25:45 51°14.567 2°44.714 28.311004 3.428432 22.040058 -0.848668
2003-03-25 16:26:45 51°14.518 2°44.372 28.668479 3.428853 22.040749 -0.848668
2003-03-25 16:27:44 51°14.469 2°44.038 30.516849 3.429064 22.040601 -0.814958
2003-03-25 16:28:45 51°14.423 2°43.692 29.913457 3.42938 22.040872 -0.814958
2003-03-25 16:29:44 51°14.376 2°43.354 27.971681 3.429696 22.041472 -0.848668
2003-03-25 16:30:45 51°14.326 2°43.005 28.208415 3.430012 22.041744 -0.848668
2003-03-25 16:31:46 51°14.279 2°42.654 28.983571 3.430222 22.041268 -0.814958
2003-03-25 16:32:46 51°14.232 2°42.306 28.219001 3.430433 22.040792 -0.848668
2003-03-25 16:33:45 51°14.188 2°41.965 28.69785 3.430644 22.040644 -0.848668
2003-03-25 16:34:45 51°14.142 2°41.615 29.305148 3.431065 22.041663 -0.848668
2003-03-25 16:35:45 51°14.099 2°41.263 28.553934 3.43117 22.041097 -0.848668
2003-03-25 16:36:45 51°14.055 2°40.913 29.785647 3.431486 22.04104 -0.848668
2003-03-25 16:37:45 51°13.99 2°40.592 30.768483 3.431591 22.042445 -0.848668
2003-03-25 16:38:45 51°13.804 2°40.618 30.679219 3.432118 22.044211 -0.848668
2003-03-25 16:39:45 51°13.809 2°40.962 29.476634 3.432539 22.041946 -0.814958
2003-03-25 16:40:44 51°13.896 2°41.321 29.862147 3.432539 22.042603 -0.882377
2003-03-25 16:41:45 51°13.981 2°41.687 30.276229 3.432855 22.043203 -0.848668
2003-03-25 16:42:45 51°14.067 2°42.053 29.911444 3.432961 22.04198 -0.848668
2003-03-25 16:43:45 51°14.144 2°42.421 29.238704 3.433277 22.041924 -0.848668
2003-03-25 16:44:45 51°14.214 2°42.789 29.359898 3.433487 22.041449 -0.848668
2003-03-25 16:45:46 51°14.282 2°43.167 29.065496 3.433803 22.042049 -0.848668
2003-03-25 16:46:44 51°14.344 2°43.528 29.125026 3.433908 22.041156 -0.848668
2003-03-25 16:47:45 51°14.408 2°43.916 29.348083 3.434224 22.041428 -0.848668
2003-03-25 16:48:45 51°14.469 2°44.292 29.0427 3.434435 22.040953 -0.848668
2003-03-25 16:49:45 51°14.527 2°44.677 28.131263 3.43454 22.04006 -0.848668
2003-03-25 16:50:45 51°14.585 2°45.061 28.048201 3.434962 22.041407 -0.848668
2003-03-25 16:51:45 51°14.641 2°45.443 29.571298 3.435067 22.040514 -0.882377
2003-03-25 16:52:46 51°14.7 2°45.836 30.160439 3.435488 22.041861 -0.882377
2003-03-25 16:53:45 51°14.756 2°46.22 28.846543 3.435699 22.041714 -0.848668
2003-03-25 16:54:46 51°14.81 2°46.612 28.852706 3.435909 22.041568 -0.882377
2003-03-25 16:55:46 51°14.864 2°47.001 28.796366 3.43612 22.041422 -0.848668
2003-03-25 16:56:45 51°14.917 2°47.381 28.704025 3.436331 22.041276 -0.848668
2003-03-25 16:57:46 51°14.972 2°47.775 29.524869 3.436541 22.041457 -0.882377
2003-03-25 16:58:46 51°15.026 2°48.161 28.944686 3.436752 22.041639 -0.882377
2003-03-25 16:59:45 51°15.08 2°48.541 29.826223 3.436963 22.041493 -0.814958
2003-03-25 17:00:45 51°15.133 2°48.927 28.12211 3.437173 22.041347 -0.848668
2003-03-25 17:01:44 51°15.187 2°49.304 28.740451 3.437489 22.042275 -0.882377
2003-03-25 17:02:45 51°15.243 2°49.697 28.447139 3.437595 22.041383 -0.882377
2003-03-25 17:03:44 51°15.297 2°50.074 29.477735 3.437805 22.041237 -0.848668
2003-03-25 17:04:44 51°15.354 2°50.449 29.24348 3.438016 22.041747 -0.848668
2003-03-25 17:05:45 51°15.398 2°50.735 29.369399 3.438227 22.041273 -0.814958
2003-03-25 17:06:44 51°15.436 2°50.976 28.346071 3.438226 22.039963 -0.882377
2003-03-25 17:07:45 51°15.473 2°51.22 28.961466 3.438542 22.040564 -0.814958
2003-03-25 17:08:45 51°15.465 2°51.458 29.403833 3.438753 22.040746 -0.848668
2003-03-25 17:09:44 51°15.406 2°51.662 30.382926 3.438964 22.039945 -0.848668
2003-03-25 17:10:45 51°15.325 2°51.849 28.29397 3.439069 22.040691 -0.814958
2003-03-25 17:11:45 51°15.258 2°52.049 28.027448 3.439385 22.041292 -0.882377
2003-03-25 17:12:45 51°15.182 2°52.239 28.888451 3.43949 22.039746 -0.848668
2003-03-25 17:13:45 51°15.101 2°52.423 28.270361 3.439912 22.041419 -0.848668
2003-03-25 17:14:45 51°15.025 2°52.613 28.952665 3.440017 22.040528 -0.882377
2003-03-25 17:15:45 51°14.963 2°52.79 29.04488 3.440122 22.040292 -0.848668
2003-03-25 17:16:45 51°14.916 2°52.949 28.428766 3.440438 22.040893 -0.882377
2003-03-25 17:17:45 51°14.867 2°53.086 28.845182 3.440544 22.040002 -0.882377
2003-03-25 17:18:45 51°14.825 2°53.214 28.082957 3.440754 22.040184 -0.848668
2003-03-25 17:19:45 51°14.788 2°53.336 28.736361 3.440965 22.040366 -0.848668
2003-03-25 17:20:45 51°14.757 2°53.457 28.734531 3.44107 22.039803 -0.848668
2003-03-25 17:21:45 51°14.72 2°53.561 29.315902 3.441281 22.039659 -0.848668
2003-03-25 17:22:44 51°14.674 2°53.648 28.829344 3.441386 22.038768 -0.814958
2003-03-25 17:23:45 51°14.646 2°53.757 29.151472 3.441702 22.039369 -0.848668
2003-03-25 17:24:44 51°14.635 2°53.892 28.707938 3.441913 22.039224 -0.848668
2003-03-25 17:25:45 51°14.625 2°54.093 30.601718 3.442018 22.038989 -0.848668
2003-03-25 17:26:45 51°14.611 2°54.309 29.886923 3.442229 22.039498 -0.848668
2003-03-25 17:27:45 51°14.587 2°54.527 30.973074 3.442439 22.03968 -0.848668
2003-03-25 17:28:45 51°14.532 2°54.72 29.772872 3.44265 22.039209 -0.848668
2003-03-25 17:29:45 51°14.457 2°54.892 30.38261 3.442755 22.038647 -0.882377
2003-03-25 17:30:45 51°14.373 2°55.051 28.898334 3.442966 22.038829 -0.848668
2003-03-25 17:31:45 51°14.294 2°55.172 29.213037 3.443176 22.039012 -0.848668
2003-03-25 17:32:45 51°14.249 2°55.262 29.292968 3.443282 22.038449 -0.848668
2003-03-25 17:33:45 51°14.213 2°55.33 31.392124 3.443598 22.04003 -0.814958
2003-03-25 17:34:45 51°14.177 2°55.368 30.111763 3.443703 22.039141 -0.848668
2003-03-25 17:35:45 51°14.151 2°55.392 29.666411 3.443808 22.038579 -0.848668
2003-03-25 17:36:45 51°14.137 2°55.404 31.261639 3.444019 22.038435 -0.814958
2003-03-25 17:37:45 51°14.125 2°55.411 29.56484 3.44423 22.038618 -0.848668
2003-03-25 17:38:45 51°14.055 2°55.464 30.062596 3.44444 22.038474 -0.848668
2003-03-25 17:39:50 51°13.956 2°55.539 29.59656 3.444546 22.038565 -0.848668
2003-03-25 17:40:50 51°13.864 2°55.61 29.07382 3.444651 22.038003 -0.882377
2003-03-25 17:41:50 51°13.786 2°55.674 28.806835 3.444862 22.038186 -0.848668
2003-03-25 17:42:50 51°13.733 2°55.742 28.717593 3.444967 22.037298 -0.848668
2003-03-25 17:43:50 51°13.694 2°55.811 28.875989 3.445178 22.037807 -0.848668
2003-03-25 17:44:50 51°13.664 2°55.882 29.2665 3.445283 22.037899 -0.848668
2003-03-25 17:45:50 51°13.636 2°55.951 29.351713 3.445388 22.037011 -0.848668
2003-03-25 17:46:50 51°13.613 2°56.019 29.297384 3.445704 22.037938 -0.882377
2003-03-25 17:47:50 51°13.605 2°56.08 30.459422 3.445809 22.037703 -0.848668